Time;durP1;ratioP1;P1;durP2;ratioP2;P2;SDS_P1;SDS_P2;PMS_P1;PMS_P2;Temp;Humidity;BMP_temperature;BMP_pressure;BME280_temperature;BME280_humidity;BME280_pressure;Samples;Min_cycle;Max_cycle;Signal;HPM_P1;HPM_P2
2022/01/06 00:00:07;;;;;;;4.87;2.20;;;6.00;99.90;;;;;;5063590;28;20184;-59
2022/01/06 00:02:33;;;;;;;5.50;2.70;;;6.10;99.90;;;;;;5090075;28;20188;-59
2022/01/06 00:04:59;;;;;;;6.57;2.17;;;6.20;99.90;;;;;;5072023;28;20678;-59
2022/01/06 00:07:24;;;;;;;5.60;1.67;;;6.20;99.90;;;;;;5081875;28;20492;-59
2022/01/06 00:09:51;;;;;;;7.90;2.63;;;6.10;99.90;;;;;;5090254;28;20699;-59
2022/01/06 00:12:19;;;;;;;10.00;2.30;;;6.20;99.90;;;;;;5095589;28;20535;-59
2022/01/06 00:15:05;;;;;;;10.47;2.17;;;6.00;99.90;;;;;;5081095;28;20598;-61
2022/01/06 00:25:24;;;;;;;7.37;1.73;;;5.80;99.90;;;;;;5061618;28;20711;-60
2022/01/06 00:27:50;;;;;;;16.17;2.80;;;5.90;99.90;;;;;;5063687;28;20176;-59
2022/01/06 00:30:16;;;;;;;7.90;2.20;;;5.90;99.90;;;;;;5095347;28;20188;-59
2022/01/06 00:32:41;;;;;;;7.87;4.13;;;5.90;99.90;;;;;;5077592;28;20185;-59
2022/01/06 00:35:10;;;;;;;12.13;2.37;;;5.80;99.90;;;;;;5090040;28;20189;-65
2022/01/06 00:37:36;;;;;;;8.70;1.77;;;5.80;99.90;;;;;;5079623;28;20254;-59
2022/01/06 00:40:02;;;;;;;5.93;2.53;;;5.80;99.90;;;;;;5095835;28;20185;-59
2022/01/06 00:42:27;;;;;;;5.30;1.93;;;5.70;99.90;;;;;;5061999;28;20185;-61
2022/01/06 00:44:53;;;;;;;12.20;2.17;;;5.70;99.90;;;;;;5084545;28;20193;-60
2022/01/06 00:47:20;;;;;;;8.87;2.00;;;5.50;99.90;;;;;;5095229;28;20682;-59
2022/01/06 00:49:46;;;;;;;3.93;2.30;;;5.60;99.90;;;;;;5095124;28;20211;-59
2022/01/06 00:52:12;;;;;;;6.03;1.47;;;5.50;99.90;;;;;;5094943;28;20204;-59
2022/01/06 00:54:38;;;;;;;2.77;1.90;;;5.50;99.90;;;;;;5076814;28;20189;-59
2022/01/06 00:57:04;;;;;;;3.33;1.87;;;5.50;99.90;;;;;;5076956;28;20185;-66
2022/01/06 00:59:30;;;;;;;3.67;2.10;;;5.50;99.90;;;;;;5075534;28;20682;-61
2022/01/06 01:01:56;;;;;;;4.03;2.50;;;5.50;99.90;;;;;;5090057;28;20207;-58
2022/01/06 01:04:21;;;;;;;2.40;2.23;;;5.60;99.90;;;;;;5084068;28;20649;-58
2022/01/06 01:06:47;;;;;;;6.57;2.17;;;5.50;99.90;;;;;;5075467;28;20185;-59
2022/01/06 01:09:13;;;;;;;4.60;2.00;;;5.50;99.90;;;;;;5075925;28;20197;-59
2022/01/06 01:11:39;;;;;;;4.53;2.30;;;5.50;99.90;;;;;;5090946;28;20653;-58
2022/01/06 01:16:55;;;;;;;12.50;3.37;;;5.40;99.90;;;;;;5087599;28;20555;-62
2022/01/06 01:19:22;;;;;;;6.77;3.20;;;5.40;99.90;;;;;;5091325;28;20246;-59
2022/01/06 01:21:48;;;;;;;9.23;3.00;;;5.40;99.90;;;;;;5094759;28;20180;-59
2022/01/06 01:24:13;;;;;;;10.03;3.83;;;5.40;99.90;;;;;;5075941;28;20594;-59
2022/01/06 01:26:39;;;;;;;4.83;2.73;;;5.30;99.90;;;;;;5094232;28;20198;-59
2022/01/06 01:29:09;;;;;;;8.03;3.67;;;5.20;99.90;;;;;;5094642;28;20659;-59
2022/01/06 01:31:42;;;;;;;5.50;3.33;;;5.10;99.90;;;;;;5084757;28;20189;-59
2022/01/06 01:34:09;;;;;;;9.80;3.17;;;5.20;99.90;;;;;;5070012;28;20648;-59
2022/01/06 01:36:36;;;;;;;12.63;7.97;;;5.20;99.90;;;;;;5084459;28;20216;-59
2022/01/06 01:39:03;;;;;;;7.57;5.03;;;5.10;99.90;;;;;;5084697;28;20227;-59
2022/01/06 01:41:29;;;;;;;9.23;4.83;;;5.00;99.90;;;;;;5065648;28;20192;-59
2022/01/06 01:43:55;;;;;;;18.50;8.13;;;4.90;99.90;;;;;;5075032;28;20188;-59
2022/01/06 01:46:28;;;;;;;12.67;8.33;;;5.20;99.90;;;;;;5079798;28;20865;-59
2022/01/06 01:49:14;;;;;;;10.60;7.00;;;5.20;99.90;;;;;;5081622;28;20243;-59
2022/01/06 01:51:41;;;;;;;15.07;9.47;;;5.30;99.90;;;;;;5074678;28;20173;-59
2022/01/06 01:54:08;;;;;;;16.77;10.03;;;5.60;99.90;;;;;;5070663;28;20542;-59
2022/01/06 01:56:34;;;;;;;48.77;24.00;;;5.60;99.90;;;;;;5079294;28;20184;-59
2022/01/06 01:59:00;;;;;;;28.97;14.90;;;5.70;99.90;;;;;;5075529;28;20671;-59
2022/01/06 02:01:26;;;;;;;12.07;8.07;;;5.90;99.90;;;;;;5093908;28;20192;-59
2022/01/06 02:03:52;;;;;;;16.83;6.73;;;5.90;99.90;;;;;;5075264;28;20697;-60
2022/01/06 02:06:19;;;;;;;12.67;6.70;;;5.90;99.90;;;;;;5082428;28;20220;-60
2022/01/06 02:08:45;;;;;;;16.17;5.77;;;5.90;99.90;;;;;;5089283;28;20196;-61
2022/01/06 02:11:11;;;;;;;15.23;5.70;;;5.80;99.90;;;;;;5094465;28;20226;-59
2022/01/06 02:13:52;;;;;;;13.73;5.30;;;6.00;99.90;;;;;;5075617;28;20217;-59
2022/01/06 02:16:20;;;;;;;20.03;5.53;;;6.20;99.90;;;;;;5075117;28;20173;-59
2022/01/06 02:18:46;;;;;;;7.20;5.47;;;6.10;99.90;;;;;;5063235;28;20201;-59
2022/01/06 02:21:11;;;;;;;11.00;5.07;;;6.10;99.90;;;;;;5075843;28;20184;-59
2022/01/06 02:23:37;;;;;;;10.57;4.03;;;6.10;99.90;;;;;;5073819;28;20211;-59
2022/01/06 02:26:03;;;;;;;12.47;5.20;;;6.10;99.90;;;;;;5075347;28;20250;-59
2022/01/06 02:28:28;;;;;;;12.53;4.67;;;6.10;99.90;;;;;;5067988;28;20190;-59
2022/01/06 02:30:55;;;;;;;6.87;5.00;;;6.10;99.90;;;;;;5074466;28;20272;-59
2022/01/06 02:33:21;;;;;;;9.60;5.50;;;6.20;99.90;;;;;;5056599;28;20280;-60
2022/01/06 02:35:48;;;;;;;8.43;4.67;;;6.20;99.90;;;;;;5074010;28;20209;-59
2022/01/06 02:38:15;;;;;;;6.67;4.77;;;6.20;99.90;;;;;;5092303;28;20710;-59
2022/01/06 02:40:41;;;;;;;14.53;6.33;;;6.20;99.90;;;;;;5093040;28;20199;-60
2022/01/06 02:43:07;;;;;;;27.13;11.47;;;6.10;99.90;;;;;;5092199;28;20181;-59
2022/01/06 02:45:35;;;;;;;25.00;11.00;;;6.20;99.90;;;;;;5074919;28;20177;-59
2022/01/06 02:48:05;;;;;;;13.03;6.37;;;6.30;99.90;;;;;;5091576;28;20586;-59
2022/01/06 02:50:31;;;;;;;14.87;6.03;;;6.20;99.90;;;;;;5093079;28;20169;-59
2022/01/06 02:52:57;;;;;;;11.37;4.43;;;6.20;99.90;;;;;;5092649;28;20267;-59
2022/01/06 02:55:22;;;;;;;14.67;4.50;;;6.20;99.90;;;;;;5083309;28;20284;-59
2022/01/06 02:57:48;;;;;;;7.90;5.23;;;5.90;99.90;;;;;;5087787;28;20201;-59
2022/01/06 03:00:16;;;;;;;21.83;13.60;;;5.70;99.90;;;;;;5091660;28;20185;-59
2022/01/06 03:02:44;;;;;;;19.30;9.13;;;5.60;99.90;;;;;;5092599;28;20601;-59
2022/01/06 03:05:11;;;;;;;15.03;4.27;;;5.60;99.90;;;;;;5075945;28;20543;-64
2022/01/06 03:07:37;;;;;;;7.03;4.47;;;5.60;99.90;;;;;;5083253;28;20188;-60
2022/01/06 03:10:06;;;;;;;11.30;3.97;;;5.50;99.90;;;;;;5063658;28;20192;-59
2022/01/06 03:12:39;;;;;;;9.47;3.07;;;5.60;99.90;;;;;;5089588;28;20209;-59
2022/01/06 03:15:10;;;;;;;12.47;3.13;;;5.70;99.90;;;;;;5058272;28;20223;-60
2022/01/06 03:17:37;;;;;;;7.70;2.60;;;5.70;99.90;;;;;;5075080;28;20287;-60
2022/01/06 03:20:05;;;;;;;14.33;3.03;;;5.70;99.90;;;;;;5074681;28;20188;-59
2022/01/06 03:22:31;;;;;;;7.13;3.60;;;5.70;99.90;;;;;;5088838;28;20181;-59
2022/01/06 03:24:56;;;;;;;7.17;2.53;;;5.70;99.90;;;;;;5092532;28;20193;-60
2022/01/06 03:27:22;;;;;;;12.07;2.40;;;5.60;99.90;;;;;;5041983;28;20177;-59
2022/01/06 03:29:50;;;;;;;1.87;1.70;;;5.70;99.90;;;;;;5086950;28;20184;-60
2022/01/06 03:32:17;;;;;;;6.20;1.90;;;5.70;99.90;;;;;;5061678;28;20195;-60
2022/01/06 03:34:42;;;;;;;9.80;2.93;;;5.70;99.90;;;;;;5084737;28;20256;-61
2022/01/06 03:37:08;;;;;;;7.97;2.50;;;5.70;99.90;;;;;;5073898;28;20279;-60
2022/01/06 03:39:34;;;;;;;8.37;2.27;;;5.60;99.90;;;;;;5065247;28;20255;-59
2022/01/06 03:42:00;;;;;;;10.80;2.30;;;5.50;99.90;;;;;;5059809;28;20189;-60
2022/01/06 03:44:26;;;;;;;8.80;2.67;;;5.60;99.90;;;;;;5083874;28;20185;-59
2022/01/06 03:46:53;;;;;;;4.53;2.20;;;5.50;99.90;;;;;;5055497;28;20189;-60
2022/01/06 03:49:19;;;;;;;5.17;1.90;;;5.50;99.90;;;;;;5072910;28;20561;-60
2022/01/06 03:51:45;;;;;;;4.70;3.40;;;5.60;99.90;;;;;;5073108;28;20209;-60
2022/01/06 03:54:11;;;;;;;9.33;2.40;;;5.60;99.90;;;;;;5075114;28;20218;-59
2022/01/06 03:56:37;;;;;;;4.80;2.40;;;5.60;99.90;;;;;;5092035;28;20585;-60
2022/01/06 03:59:02;;;;;;;12.67;3.77;;;5.50;99.90;;;;;;5074234;28;20231;-59
2022/01/06 04:01:28;;;;;;;9.03;2.90;;;5.50;99.90;;;;;;5091987;28;20212;-59
2022/01/06 04:03:54;;;;;;;8.73;2.20;;;5.50;99.90;;;;;;5091057;28;20690;-59
2022/01/06 04:06:20;;;;;;;4.93;2.10;;;5.50;99.90;;;;;;5093032;28;20215;-60
2022/01/06 04:08:46;;;;;;;5.00;2.43;;;5.50;99.90;;;;;;5069911;28;20197;-59
2022/01/06 04:11:11;;;;;;;10.00;3.60;;;5.60;99.90;;;;;;5072926;28;20585;-59
2022/01/06 04:13:37;;;;;;;4.97;2.83;;;5.60;99.90;;;;;;5055012;28;20238;-60
2022/01/06 04:16:07;;;;;;;14.20;3.33;;;5.50;99.90;;;;;;5084299;28;20227;-60
2022/01/06 04:18:33;;;;;;;16.93;5.97;;;5.50;99.90;;;;;;5057654;28;20201;-59
2022/01/06 04:20:58;;;;;;;13.50;4.10;;;5.60;99.90;;;;;;5087143;28;20191;-59
2022/01/06 04:23:24;;;;;;;9.43;4.73;;;5.80;99.90;;;;;;5090826;28;20185;-59
2022/01/06 04:25:50;;;;;;;12.33;4.47;;;5.90;99.90;;;;;;5089305;28;20192;-59
2022/01/06 04:28:16;;;;;;;12.93;4.47;;;5.90;99.90;;;;;;5082040;28;20192;-60
2022/01/06 04:30:41;;;;;;;13.43;4.83;;;5.80;99.90;;;;;;5072485;28;20185;-60
2022/01/06 04:33:07;;;;;;;18.73;4.50;;;5.70;99.90;;;;;;5082235;28;20199;-59
2022/01/06 04:35:33;;;;;;;17.20;5.47;;;5.70;99.90;;;;;;5076381;28;20181;-59
2022/01/06 04:37:58;;;;;;;12.90;5.67;;;5.70;99.90;;;;;;5093522;28;20327;-59
2022/01/06 04:40:24;;;;;;;5.30;3.90;;;5.60;99.90;;;;;;5076126;28;20777;-64
2022/01/06 04:42:50;;;;;;;20.37;4.77;;;5.60;99.90;;;;;;5074328;28;20609;-59
2022/01/06 04:45:16;;;;;;;5.90;3.93;;;5.60;99.90;;;;;;5058549;28;20563;-60
2022/01/06 04:47:41;;;;;;;13.13;5.07;;;5.50;99.90;;;;;;5069582;28;20189;-60
2022/01/06 04:50:07;;;;;;;10.97;4.90;;;5.50;99.90;;;;;;5077623;28;20177;-60
2022/01/06 04:52:33;;;;;;;11.37;4.43;;;5.50;99.90;;;;;;5077617;28;20184;-60
2022/01/06 04:54:59;;;;;;;10.27;4.10;;;5.50;99.90;;;;;;5046803;28;20230;-60
2022/01/06 04:57:24;;;;;;;14.17;4.80;;;5.40;99.90;;;;;;5076303;28;20207;-59
2022/01/06 04:59:50;;;;;;;14.00;5.10;;;5.50;99.90;;;;;;5090398;28;20657;-60
2022/01/06 05:02:16;;;;;;;9.27;5.03;;;5.60;99.90;;;;;;5065544;28;20181;-60
2022/01/06 05:04:42;;;;;;;15.70;5.17;;;5.50;99.90;;;;;;5095335;28;20188;-57
2022/01/06 05:07:07;;;;;;;8.77;4.77;;;5.60;99.90;;;;;;5079557;28;20181;-58
2022/01/06 05:09:33;;;;;;;13.70;4.87;;;5.60;99.90;;;;;;5086919;28;20188;-58
2022/01/06 05:11:59;;;;;;;17.60;5.03;;;5.60;99.90;;;;;;5086896;28;20193;-67
2022/01/06 05:14:25;;;;;;;10.67;6.03;;;5.50;99.90;;;;;;5087918;28;20192;-72
2022/01/06 05:16:50;;;;;;;15.83;5.80;;;5.40;99.90;;;;;;5076831;28;20634;-73
2022/01/06 05:19:16;;;;;;;16.20;5.37;;;5.30;99.90;;;;;;5049354;28;20205;-72
2022/01/06 05:21:43;;;;;;;11.80;5.20;;;5.30;99.90;;;;;;5082916;28;20189;-60
2022/01/06 05:24:13;;;;;;;11.90;5.57;;;5.30;99.90;;;;;;5082738;28;20686;-61
2022/01/06 05:26:40;;;;;;;13.73;5.03;;;5.30;99.90;;;;;;5075030;28;20599;-59
2022/01/06 05:29:07;;;;;;;11.17;4.70;;;5.30;99.90;;;;;;5073010;28;20188;-63
2022/01/06 05:31:33;;;;;;;8.17;4.97;;;5.20;99.90;;;;;;5085351;28;20697;-60
2022/01/06 05:33:58;;;;;;;11.90;5.67;;;5.20;99.90;;;;;;5070220;28;20213;-61
2022/01/06 05:36:24;;;;;;;11.80;5.70;;;5.10;99.90;;;;;;5079131;28;20751;-61
2022/01/06 05:38:50;;;;;;;8.50;5.63;;;5.10;99.90;;;;;;5084609;28;20284;-61
2022/01/06 05:41:15;;;;;;;11.57;4.90;;;5.00;99.90;;;;;;5075101;28;20216;-60
2022/01/06 05:43:41;;;;;;;8.53;5.03;;;5.00;99.90;;;;;;5075253;28;20181;-61
2022/01/06 05:46:07;;;;;;;12.17;5.67;;;5.00;99.90;;;;;;5086895;28;20181;-61
2022/01/06 05:48:33;;;;;;;12.27;5.57;;;5.00;99.90;;;;;;5075563;28;20180;-61
2022/01/06 05:50:58;;;;;;;11.67;5.37;;;5.10;99.90;;;;;;5086475;28;20185;-61
2022/01/06 05:53:25;;;;;;;14.67;5.07;;;5.00;99.90;;;;;;5057408;28;20185;-61
2022/01/06 05:55:50;;;;;;;14.47;5.00;;;5.00;99.90;;;;;;5062484;28;20212;-61
2022/01/06 05:58:16;;;;;;;11.10;5.40;;;5.10;99.90;;;;;;5076195;28;20282;-60
2022/01/06 06:00:42;;;;;;;13.03;4.67;;;5.00;99.90;;;;;;5056548;28;20657;-60
2022/01/06 06:03:08;;;;;;;15.73;4.60;;;5.10;99.90;;;;;;5074420;28;20264;-62
2022/01/06 06:05:34;;;;;;;16.60;4.83;;;5.00;99.90;;;;;;5089946;28;20688;-61
2022/01/06 06:07:59;;;;;;;18.00;4.20;;;4.90;99.90;;;;;;5075554;28;20558;-62
2022/01/06 06:10:25;;;;;;;15.77;4.33;;;5.00;99.90;;;;;;5094046;28;20229;-62
2022/01/06 06:12:52;;;;;;;16.87;4.80;;;4.90;99.90;;;;;;5093494;28;20272;-64
2022/01/06 06:15:21;;;;;;;14.40;4.90;;;4.80;99.90;;;;;;5092480;28;20199;-61
2022/01/06 06:17:48;;;;;;;24.90;7.77;;;4.70;99.90;;;;;;5091223;28;20204;-61
2022/01/06 06:20:14;;;;;;;12.03;4.53;;;4.70;99.90;;;;;;5073953;28;20218;-64
2022/01/06 06:22:39;;;;;;;10.47;3.97;;;4.70;99.90;;;;;;5082034;28;20189;-60
2022/01/06 06:25:06;;;;;;;15.53;5.23;;;4.70;99.90;;;;;;5071903;28;20222;-60
2022/01/06 06:27:31;;;;;;;9.83;4.40;;;4.70;99.90;;;;;;5081043;28;20216;-60
2022/01/06 06:29:57;;;;;;;18.23;4.80;;;4.60;99.90;;;;;;5077753;28;20192;-60
2022/01/06 06:32:25;;;;;;;13.30;4.13;;;4.60;99.90;;;;;;5074002;28;20197;-60
2022/01/06 06:34:52;;;;;;;13.03;5.33;;;4.60;99.90;;;;;;5086242;28;20183;-60
2022/01/06 06:37:18;;;;;;;8.80;4.93;;;4.70;99.90;;;;;;5086273;28;20177;-60
2022/01/06 06:39:44;;;;;;;11.00;4.80;;;4.50;99.90;;;;;;5092482;28;20253;-60
2022/01/06 06:42:10;;;;;;;19.17;5.87;;;4.40;99.90;;;;;;5049264;28;20288;-60
2022/01/06 06:44:36;;;;;;;7.70;3.43;;;4.50;99.90;;;;;;5059872;28;20261;-61
2022/01/06 06:47:02;;;;;;;11.70;3.73;;;4.50;99.90;;;;;;5077814;28;20542;-60
2022/01/06 06:49:29;;;;;;;14.03;5.27;;;4.50;99.90;;;;;;5076179;28;20177;-61
2022/01/06 06:51:55;;;;;;;14.93;6.40;;;4.50;99.90;;;;;;5079835;28;20212;-61
2022/01/06 06:54:21;;;;;;;28.47;8.83;;;4.50;99.90;;;;;;5063219;28;20631;-61
2022/01/06 06:56:47;;;;;;;28.67;9.40;;;4.60;99.90;;;;;;5067820;28;20550;-62
2022/01/06 06:59:12;;;;;;;35.53;8.97;;;4.60;99.90;;;;;;5092567;28;20201;-62
2022/01/06 07:01:38;;;;;;;28.07;10.70;;;4.50;99.90;;;;;;5064026;28;20221;-61
2022/01/06 07:04:04;;;;;;;23.47;10.23;;;4.30;99.90;;;;;;5056772;28;20181;-62
2022/01/06 07:06:30;;;;;;;16.63;7.57;;;4.30;99.90;;;;;;5071875;28;20235;-61
2022/01/06 07:08:55;;;;;;;15.00;6.27;;;4.40;99.90;;;;;;5073890;28;20192;-62
2022/01/06 07:11:22;;;;;;;15.47;5.63;;;4.30;99.90;;;;;;5073013;28;20584;-61
2022/01/06 07:13:48;;;;;;;12.83;4.93;;;4.30;99.90;;;;;;5080667;28;20555;-61
2022/01/06 07:16:14;;;;;;;9.40;5.90;;;4.40;99.90;;;;;;5084502;28;20185;-62
2022/01/06 07:18:39;;;;;;;12.43;4.17;;;4.30;99.90;;;;;;5084691;28;20205;-61
2022/01/06 07:21:05;;;;;;;17.10;5.90;;;4.20;99.90;;;;;;5082438;28;20211;-61
2022/01/06 07:23:30;;;;;;;14.87;6.30;;;4.20;99.90;;;;;;5060531;28;20263;-60
2022/01/06 07:25:56;;;;;;;14.00;7.13;;;4.20;99.90;;;;;;5082342;28;20193;-64
2022/01/06 07:28:22;;;;;;;13.23;4.90;;;4.20;99.90;;;;;;5081899;28;20400;-61
2022/01/06 07:30:48;;;;;;;14.50;5.97;;;4.30;99.90;;;;;;5072652;28;20664;-61
2022/01/06 07:33:13;;;;;;;12.80;5.47;;;4.30;99.90;;;;;;5092695;28;20181;-62
2022/01/06 07:35:39;;;;;;;17.77;6.97;;;4.20;99.90;;;;;;5073752;28;20192;-63
2022/01/06 07:38:04;;;;;;;16.63;6.07;;;4.10;99.90;;;;;;5077001;28;20209;-61
2022/01/06 07:40:30;;;;;;;14.20;6.33;;;4.10;99.90;;;;;;5073740;28;20195;-61
2022/01/06 07:42:56;;;;;;;19.67;6.67;;;4.10;99.90;;;;;;5071636;28;20226;-62
2022/01/06 07:45:22;;;;;;;20.70;5.60;;;4.10;99.90;;;;;;5077007;28;20184;-62
2022/01/06 07:47:59;;;;;;;14.23;5.00;;;4.10;99.90;;;;;;5066739;28;20196;-61
2022/01/06 07:50:34;;;;;;;12.83;5.63;;;4.10;99.90;;;;;;5091611;28;20188;-64
2022/01/06 07:53:00;;;;;;;17.50;5.07;;;4.10;99.90;;;;;;5072698;28;20184;-62
2022/01/06 07:55:26;;;;;;;12.87;4.73;;;4.10;99.90;;;;;;5088648;28;21381;-61
2022/01/06 07:57:54;;;;;;;15.83;5.97;;;4.00;99.90;;;;;;5084075;28;20205;-61
2022/01/06 08:00:21;;;;;;;10.67;6.00;;;3.90;99.90;;;;;;5067654;28;20180;-61
2022/01/06 08:02:47;;;;;;;15.87;5.47;;;4.10;99.90;;;;;;5083814;28;20629;-62
2022/01/06 08:05:15;;;;;;;14.07;5.00;;;4.10;99.90;;;;;;5073815;28;20184;-62
2022/01/06 08:07:42;;;;;;;11.63;5.13;;;4.10;99.90;;;;;;5071423;28;20177;-62
2022/01/06 08:10:08;;;;;;;12.73;5.30;;;4.10;99.90;;;;;;5065728;28;20200;-62
2022/01/06 08:12:35;;;;;;;12.77;6.60;;;4.20;99.90;;;;;;5094851;28;20311;-61
2022/01/06 08:15:01;;;;;;;13.87;5.73;;;4.20;99.90;;;;;;5077588;28;20177;-62
2022/01/06 08:17:26;;;;;;;16.67;5.93;;;4.20;99.90;;;;;;5060485;28;20189;-62
2022/01/06 08:19:52;;;;;;;12.90;6.37;;;4.20;99.90;;;;;;5077651;28;20651;-62
2022/01/06 08:22:19;;;;;;;15.53;7.17;;;4.20;99.90;;;;;;5083389;28;20195;-62
2022/01/06 08:24:44;;;;;;;11.20;5.80;;;4.20;99.90;;;;;;5071412;28;20176;-62
2022/01/06 08:27:10;;;;;;;18.93;7.80;;;4.30;99.90;;;;;;5077604;28;20184;-62
2022/01/06 08:29:40;;;;;;;15.13;6.37;;;4.40;99.90;;;;;;5095322;28;20637;-61
2022/01/06 08:32:06;;;;;;;16.27;6.20;;;4.40;99.90;;;;;;5095615;28;20196;-62
2022/01/06 08:34:33;;;;;;;15.10;6.20;;;4.40;99.90;;;;;;5095287;28;20188;-62
2022/01/06 08:36:58;;;;;;;18.07;6.33;;;4.40;99.90;;;;;;5095741;28;20177;-62
2022/01/06 08:39:24;;;;;;;17.40;7.70;;;4.40;99.90;;;;;;5088754;28;20634;-62
2022/01/06 08:41:51;;;;;;;14.27;6.63;;;4.50;99.90;;;;;;5077660;28;20185;-62
2022/01/06 08:44:16;;;;;;;14.13;6.37;;;4.50;99.90;;;;;;5077722;28;20177;-63
2022/01/06 08:46:42;;;;;;;17.20;5.43;;;4.50;99.90;;;;;;5067322;28;20193;-62
2022/01/06 08:49:11;;;;;;;12.23;5.63;;;4.50;99.90;;;;;;5089411;28;20642;-62
2022/01/06 08:51:38;;;;;;;12.63;6.43;;;4.50;99.90;;;;;;5076962;28;20543;-62
2022/01/06 08:54:05;;;;;;;13.87;6.13;;;4.60;99.90;;;;;;5077346;28;20192;-62
2022/01/06 08:56:30;;;;;;;10.47;5.93;;;4.60;99.90;;;;;;5069825;28;20185;-62
2022/01/06 08:58:56;;;;;;;13.93;6.93;;;4.70;99.90;;;;;;5086670;28;20216;-61
2022/01/06 09:01:22;;;;;;;13.90;6.13;;;4.80;99.90;;;;;;5077551;28;20200;-62
2022/01/06 09:03:47;;;;;;;17.30;6.57;;;4.90;99.90;;;;;;5076394;28;20655;-62
2022/01/06 09:06:13;;;;;;;16.93;6.87;;;4.80;99.90;;;;;;5076011;28;20185;-63
2022/01/06 09:08:39;;;;;;;10.23;5.80;;;4.90;99.90;;;;;;5080303;28;20199;-63
2022/01/06 09:11:04;;;;;;;12.97;6.37;;;4.90;99.90;;;;;;5082279;28;20334;-63
2022/01/06 09:13:30;;;;;;;10.83;5.23;;;4.90;99.90;;;;;;5087357;28;20184;-63
2022/01/06 09:15:56;;;;;;;10.23;5.27;;;5.00;99.90;;;;;;5075823;28;20226;-63
2022/01/06 09:18:22;;;;;;;18.97;6.60;;;5.00;99.90;;;;;;5074539;28;20569;-63
2022/01/06 09:20:48;;;;;;;13.40;5.13;;;4.90;99.90;;;;;;5056214;28;20196;-63
2022/01/06 09:23:14;;;;;;;9.77;5.07;;;5.00;99.90;;;;;;5059626;28;20193;-63
2022/01/06 09:25:40;;;;;;;12.13;4.90;;;5.10;99.90;;;;;;5095169;28;20562;-63
2022/01/06 09:28:05;;;;;;;13.87;5.07;;;5.10;99.90;;;;;;5094954;28;20185;-63
2022/01/06 09:30:31;;;;;;;12.87;5.43;;;5.20;99.90;;;;;;5086969;28;20645;-62
2022/01/06 09:32:57;;;;;;;7.30;5.07;;;5.40;99.90;;;;;;5076304;28;20595;-63
2022/01/06 09:35:24;;;;;;;13.20;4.40;;;5.60;99.90;;;;;;5095395;28;20180;-67
2022/01/06 09:37:49;;;;;;;4.10;3.80;;;5.80;99.90;;;;;;5073161;28;20205;-63
2022/01/06 09:40:15;;;;;;;11.10;4.63;;;5.80;99.90;;;;;;5089688;28;20267;-63
2022/01/06 09:42:42;;;;;;;11.73;4.67;;;6.20;99.90;;;;;;5062418;28;20242;-63
2022/01/06 09:45:09;;;;;;;10.73;3.13;;;6.50;99.90;;;;;;5093040;28;20176;-65
2022/01/06 09:47:37;;;;;;;14.27;3.33;;;7.10;99.90;;;;;;5094292;28;20188;-63
2022/01/06 09:50:04;;;;;;;11.53;2.97;;;7.60;99.90;;;;;;5075605;28;20546;-63
2022/01/06 09:52:29;;;;;;;3.00;2.40;;;7.80;99.90;;;;;;5069358;28;20186;-63
2022/01/06 09:54:55;;;;;;;7.70;2.27;;;7.60;99.90;;;;;;5048372;28;20192;-63
2022/01/06 09:57:21;;;;;;;5.80;2.50;;;7.40;99.90;;;;;;5085538;28;20749;-62
2022/01/06 09:59:48;;;;;;;4.37;2.60;;;7.40;99.90;;;;;;5079100;28;20201;-62
2022/01/06 10:02:17;;;;;;;9.77;2.90;;;7.30;99.90;;;;;;5093773;28;20184;-63
2022/01/06 10:04:57;;;;;;;10.00;3.00;;;7.30;99.90;;;;;;5090862;28;20240;-62
2022/01/06 10:07:23;;;;;;;10.07;4.70;;;6.90;99.90;;;;;;5068523;28;20642;-62
2022/01/06 10:09:50;;;;;;;9.13;2.83;;;6.70;99.90;;;;;;5082546;28;20291;-62
2022/01/06 10:12:16;;;;;;;10.23;3.43;;;6.50;99.90;;;;;;5081799;28;20196;-62
2022/01/06 10:14:49;;;;;;;7.70;3.37;;;6.40;99.90;;;;;;5056874;28;20185;-62
2022/01/06 10:17:29;;;;;;;7.60;2.90;;;6.30;99.90;;;;;;5074769;28;20191;-62
2022/01/06 10:19:55;;;;;;;9.00;3.40;;;6.30;99.90;;;;;;5092088;28;20192;-62
2022/01/06 10:22:22;;;;;;;7.80;4.17;;;6.30;99.90;;;;;;5074189;28;20638;-62
2022/01/06 10:24:50;;;;;;;6.37;3.00;;;6.30;99.90;;;;;;5075058;28;20188;-63
2022/01/06 10:27:19;;;;;;;11.70;3.63;;;6.40;99.90;;;;;;5074985;28;20264;-63
2022/01/06 10:29:48;;;;;;;11.63;4.57;;;6.50;99.90;;;;;;5093641;28;20685;-64
2022/01/06 10:32:20;;;;;;;6.03;3.37;;;6.60;99.90;;;;;;5073970;28;20264;-63
2022/01/06 10:34:50;;;;;;;5.90;3.37;;;6.70;99.90;;;;;;5073922;28;20208;-63
2022/01/06 10:37:31;;;;;;;11.17;3.13;;;6.80;99.90;;;;;;5074847;28;20234;-63
2022/01/06 10:39:59;;;;;;;6.67;3.40;;;6.80;99.90;;;;;;5092174;28;20189;-63
2022/01/06 10:42:27;;;;;;;8.03;3.47;;;6.90;99.90;;;;;;5067301;28;20183;-63
2022/01/06 10:45:00;;;;;;;7.13;3.30;;;7.00;99.90;;;;;;5093342;28;20177;-63
2022/01/06 10:47:33;;;;;;;7.13;2.87;;;7.10;99.90;;;;;;5073797;28;20181;-61
2022/01/06 10:50:18;;;;;;;4.83;2.70;;;7.20;99.90;;;;;;5092498;28;20180;-63
2022/01/06 10:52:52;;;;;;;6.37;3.43;;;7.20;99.90;;;;;;5075454;28;20271;-63
2022/01/06 10:55:23;;;;;;;6.87;4.67;;;7.10;99.90;;;;;;5073187;28;20217;-63
2022/01/06 10:57:57;;;;;;;9.70;4.70;;;7.30;99.90;;;;;;5088667;28;20204;-63
2022/01/06 11:00:31;;;;;;;15.30;6.40;;;7.40;99.90;;;;;;5084759;28;20180;-63
2022/01/06 11:03:13;;;;;;;13.53;6.13;;;7.30;99.90;;;;;;5078865;28;20183;-63
2022/01/06 11:05:50;;;;;;;11.63;5.23;;;7.20;99.90;;;;;;5074566;28;20181;-63
2022/01/06 11:08:20;;;;;;;7.03;4.57;;;7.40;99.90;;;;;;5075090;28;20607;-63
2022/01/06 11:10:49;;;;;;;14.87;5.80;;;7.50;99.90;;;;;;5084798;28;20702;-64
2022/01/06 11:13:17;;;;;;;9.77;5.80;;;7.60;99.90;;;;;;5072345;28;20757;-63
2022/01/06 11:15:44;;;;;;;13.97;5.57;;;7.60;99.90;;;;;;5086557;28;20634;-64
2022/01/06 11:18:16;;;;;;;16.27;5.63;;;7.60;99.90;;;;;;5073282;28;20669;-63
2022/01/06 11:20:43;;;;;;;17.63;6.77;;;7.60;99.90;;;;;;5075081;28;20226;-62
2022/01/06 11:23:22;;;;;;;11.27;7.10;;;7.30;99.90;;;;;;5092518;28;20668;-63
2022/01/06 11:26:12;;;;;;;20.27;7.30;;;7.20;99.90;;;;;;5083149;28;20189;-64
2022/01/06 11:28:42;;;;;;;15.70;6.87;;;7.30;99.90;;;;;;5073532;28;20223;-64
2022/01/06 11:31:21;;;;;;;13.50;6.97;;;7.20;99.90;;;;;;5081749;28;20185;-64
2022/01/06 11:33:49;;;;;;;17.27;6.77;;;7.20;99.90;;;;;;5092166;28;20178;-62
2022/01/06 11:36:25;;;;;;;12.70;6.80;;;7.30;99.90;;;;;;5092221;28;20185;-63
2022/01/06 11:38:51;;;;;;;18.37;8.33;;;7.50;99.90;;;;;;5092100;28;20235;-63
2022/01/06 11:41:17;;;;;;;15.43;7.23;;;7.50;99.90;;;;;;5092834;28;20192;-63
2022/01/06 11:43:46;;;;;;;17.87;7.70;;;7.60;99.90;;;;;;5055762;28;20185;-63
2022/01/06 11:46:12;;;;;;;8.47;6.47;;;7.60;99.90;;;;;;5086952;28;20643;-63
2022/01/06 11:48:49;;;;;;;19.37;7.33;;;7.60;99.90;;;;;;5081273;28;20188;-63
2022/01/06 11:51:42;;;;;;;16.83;7.03;;;7.60;99.90;;;;;;5071254;28;20192;-63
2022/01/06 11:54:15;;;;;;;19.87;6.93;;;7.60;99.90;;;;;;5085563;28;20197;-63
2022/01/06 11:56:51;;;;;;;13.27;6.90;;;7.50;99.90;;;;;;5075122;28;20189;-63
2022/01/06 11:59:31;;;;;;;19.60;8.00;;;7.60;99.90;;;;;;5087113;28;20605;-63
2022/01/06 12:01:58;;;;;;;13.10;7.33;;;7.40;99.90;;;;;;5072993;28;20177;-63
2022/01/06 12:04:25;;;;;;;11.57;6.27;;;7.40;99.90;;;;;;5090160;28;20184;-63
2022/01/06 12:07:06;;;;;;;15.93;6.50;;;7.20;99.90;;;;;;5075824;28;20184;-63
2022/01/06 12:09:32;;;;;;;17.70;6.77;;;7.30;99.90;;;;;;5090804;28;20279;-63
2022/01/06 12:12:00;;;;;;;13.97;6.63;;;7.40;99.90;;;;;;5084613;28;20212;-62
2022/01/06 12:14:26;;;;;;;15.57;7.33;;;7.30;99.90;;;;;;5080919;28;20180;-63
2022/01/06 12:17:00;;;;;;;10.43;5.83;;;7.30;99.90;;;;;;5082955;28;20662;-63
2022/01/06 12:19:26;;;;;;;11.33;6.93;;;7.30;99.90;;;;;;5066604;28;20216;-63
2022/01/06 12:21:52;;;;;;;17.87;8.23;;;7.20;99.90;;;;;;5073608;28;20189;-63
2022/01/06 12:24:18;;;;;;;12.30;7.20;;;7.10;99.90;;;;;;5078508;28;20273;-63
2022/01/06 12:26:45;;;;;;;14.13;8.03;;;7.10;99.90;;;;;;5086137;28;20610;-63
2022/01/06 12:29:17;;;;;;;22.63;8.07;;;7.10;99.90;;;;;;5053591;28;20211;-62
2022/01/06 12:31:43;;;;;;;12.23;7.63;;;7.20;99.90;;;;;;5057305;28;20180;-63
2022/01/06 12:34:11;;;;;;;20.23;9.83;;;7.10;99.90;;;;;;5083648;28;20238;-63
2022/01/06 12:36:40;;;;;;;19.07;8.70;;;7.00;99.90;;;;;;5074112;28;20195;-63
2022/01/06 12:39:12;;;;;;;17.90;9.47;;;6.90;99.90;;;;;;5081259;28;20694;-63
2022/01/06 12:41:38;;;;;;;22.67;9.17;;;7.10;99.90;;;;;;5080528;28;20531;-63
2022/01/06 12:44:04;;;;;;;16.73;10.83;;;7.00;99.90;;;;;;5079768;28;20280;-63
2022/01/06 12:46:37;;;;;;;21.57;11.10;;;6.90;99.90;;;;;;5078914;28;20399;-63
2022/01/06 12:49:07;;;;;;;15.97;9.73;;;6.90;99.90;;;;;;5081824;28;20244;-63
2022/01/06 12:51:34;;;;;;;18.13;10.20;;;6.70;99.90;;;;;;5091799;28;20188;-63
2022/01/06 12:54:13;;;;;;;17.27;9.23;;;6.70;99.90;;;;;;5081402;28;20228;-63
2022/01/06 12:56:41;;;;;;;20.83;11.10;;;6.70;99.90;;;;;;5076806;28;20608;-63
2022/01/06 12:59:17;;;;;;;25.10;11.47;;;6.70;99.90;;;;;;5077206;28;20242;-63
2022/01/06 13:01:45;;;;;;;20.60;11.53;;;6.80;99.90;;;;;;5063194;28;20185;-63